createdAt,value
2022-12-29T00:01:03.520Z,58.80
2022-12-29T00:03:33.199Z,58.80
2022-12-29T00:06:03.090Z,58.80
2022-12-29T00:08:41.579Z,58.70
2022-12-29T00:11:10.253Z,58.70
2022-12-29T00:13:56.005Z,58.70
2022-12-29T00:16:24.391Z,58.70
2022-12-29T00:18:53.956Z,58.70
2022-12-29T00:21:41.038Z,58.70
2022-12-29T00:24:31.382Z,58.80
2022-12-29T00:27:29.241Z,58.80
2022-12-29T00:30:15.483Z,58.80
2022-12-29T00:33:01.126Z,58.90
2022-12-29T00:35:33.305Z,58.90
2022-12-29T00:38:23.703Z,58.90
2022-12-29T00:41:09.515Z,58.80
2022-12-29T00:43:54.982Z,58.80
2022-12-29T00:46:23.131Z,58.80
2022-12-29T00:49:08.945Z,58.80
2022-12-29T00:51:38.401Z,58.80
2022-12-29T00:54:06.551Z,58.70
2022-12-29T00:56:35.458Z,58.70
2022-12-29T00:59:03.820Z,58.70
2022-12-29T01:01:32.597Z,58.60
2022-12-29T01:04:04.053Z,58.70
2022-12-29T01:06:32.828Z,58.70
2022-12-29T01:09:20.413Z,58.60
2022-12-29T01:11:49.504Z,58.60
2022-12-29T01:14:18.322Z,58.70
2022-12-29T01:16:47.894Z,58.50
2022-12-29T01:19:17.308Z,58.50
2022-12-29T01:21:46.486Z,58.50
2022-12-29T01:24:16.311Z,58.50
2022-12-29T01:26:45.087Z,58.50
2022-12-29T01:29:13.426Z,58.50
2022-12-29T01:31:42.464Z,58.50
2022-12-29T01:34:10.884Z,58.50
2022-12-29T01:36:40.097Z,58.50
2022-12-29T01:39:08.279Z,58.50
2022-12-29T01:41:37.771Z,58.50
2022-12-29T01:44:39.146Z,58.40
2022-12-29T01:47:09.343Z,58.50
2022-12-29T01:49:37.750Z,58.60
2022-12-29T01:52:09.479Z,58.40
2022-12-29T01:54:42.084Z,58.10
2022-12-29T01:57:15.605Z,58.20
2022-12-29T01:59:48.065Z,58.80
2022-12-29T02:02:16.281Z,58.80
2022-12-29T02:04:46.501Z,59.10
2022-12-29T02:07:22.013Z,58.90
2022-12-29T02:09:52.215Z,59.30
2022-12-29T02:12:23.592Z,59.40
2022-12-29T02:14:56.139Z,59.30
2022-12-29T02:17:39.857Z,59.30
2022-12-29T02:21:07.493Z,59.30
2022-12-29T02:24:04.239Z,59.20
2022-12-29T02:26:50.046Z,59.30
2022-12-29T02:29:47.073Z,59.30
2022-12-29T02:32:23.659Z,59.30
2022-12-29T02:35:03.411Z,59.20
2022-12-29T02:37:38.345Z,59.20
2022-12-29T02:40:13.138Z,59.10
2022-12-29T02:42:51.758Z,59.10
2022-12-29T02:45:24.599Z,59.10
2022-12-29T02:48:00.978Z,59.10
2022-12-29T02:50:35.613Z,59.00
2022-12-29T02:53:07.433Z,59.00
2022-12-29T02:55:35.622Z,59.00
2022-12-29T02:58:21.940Z,59.00
2022-12-29T03:01:05.747Z,59.00
2022-12-29T03:03:50.894Z,59.00
2022-12-29T03:06:33.637Z,58.80
2022-12-29T03:09:19.165Z,59.00
2022-12-29T03:12:09.999Z,59.00
2022-12-29T03:15:07.153Z,59.00
2022-12-29T03:17:42.019Z,59.00
2022-12-29T03:20:16.248Z,59.10
2022-12-29T03:22:46.907Z,59.10
2022-12-29T03:25:26.136Z,58.90
2022-12-29T03:27:59.306Z,59.10
2022-12-29T03:30:30.529Z,59.20
2022-12-29T03:33:03.012Z,59.20
2022-12-29T03:35:38.551Z,59.20
2022-12-29T03:38:16.175Z,59.20
2022-12-29T03:40:50.380Z,59.30
2022-12-29T03:43:20.053Z,59.30
2022-12-29T03:45:49.394Z,59.30
2022-12-29T03:48:17.515Z,59.30
2022-12-29T03:50:48.892Z,59.30
2022-12-29T03:53:17.647Z,59.30
2022-12-29T03:55:47.187Z,59.30
2022-12-29T03:58:15.304Z,59.30
2022-12-29T04:01:09.394Z,59.30
2022-12-29T04:03:41.764Z,59.40
2022-12-29T04:06:11.349Z,59.40
2022-12-29T04:08:53.555Z,59.30
2022-12-29T04:11:25.187Z,59.30
2022-12-29T04:13:56.705Z,59.30
2022-12-29T04:16:26.990Z,59.30
2022-12-29T04:18:55.316Z,59.30
2022-12-29T04:21:25.904Z,59.30
2022-12-29T04:23:54.171Z,59.20
2022-12-29T04:26:22.284Z,59.20
2022-12-29T04:28:57.581Z,59.20
2022-12-29T04:31:37.196Z,59.20
2022-12-29T04:34:05.896Z,59.10
2022-12-29T04:36:35.875Z,59.10
2022-12-29T04:39:06.190Z,59.00
2022-12-29T04:41:35.184Z,59.00
2022-12-29T04:44:04.218Z,58.90
2022-12-29T04:46:50.461Z,58.60
2022-12-29T04:49:35.009Z,58.80
2022-12-29T04:52:24.494Z,58.50
2022-12-29T04:54:53.549Z,58.20
2022-12-29T04:57:22.973Z,59.00
2022-12-29T04:59:55.291Z,59.10
2022-12-29T05:02:24.611Z,59.10
2022-12-29T05:04:53.208Z,59.20
2022-12-29T05:07:21.344Z,59.10
2022-12-29T05:09:52.028Z,59.20
2022-12-29T05:12:20.233Z,59.20
2022-12-29T05:14:56.147Z,59.20
2022-12-29T05:17:24.296Z,59.20
2022-12-29T05:19:52.395Z,59.30
2022-12-29T05:22:20.942Z,59.30
2022-12-29T05:24:49.199Z,59.30
2022-12-29T05:27:21.018Z,59.40
2022-12-29T05:29:54.651Z,59.40
2022-12-29T05:32:22.858Z,59.40
2022-12-29T05:34:51.071Z,59.40
2022-12-29T05:37:20.220Z,59.40
2022-12-29T05:39:48.332Z,59.40
2022-12-29T05:42:16.479Z,59.40
2022-12-29T05:45:09.419Z,59.40
2022-12-29T05:47:57.402Z,59.50
2022-12-29T05:50:49.614Z,58.80
2022-12-29T05:53:20.503Z,58.40
2022-12-29T05:55:49.917Z,58.10
2022-12-29T05:58:19.179Z,59.00
2022-12-29T06:00:50.600Z,58.80
2022-12-29T06:03:18.821Z,58.90
2022-12-29T06:05:47.955Z,59.00
2022-12-29T06:08:17.685Z,59.10
2022-12-29T06:10:45.920Z,59.30
2022-12-29T06:13:14.051Z,59.40
2022-12-29T06:15:45.096Z,59.50
2022-12-29T06:18:19.696Z,59.60
2022-12-29T06:20:49.068Z,59.70
2022-12-29T06:23:19.654Z,59.80
2022-12-29T06:25:49.640Z,59.90
2022-12-29T06:28:18.635Z,60.00
2022-12-29T06:30:47.568Z,60.00
2022-12-29T06:33:17.649Z,60.10
2022-12-29T06:35:46.879Z,60.10
2022-12-29T06:38:16.565Z,60.10
2022-12-29T06:40:46.698Z,60.20
2022-12-29T06:43:43.716Z,60.20
2022-12-29T06:46:38.549Z,60.10
2022-12-29T06:49:08.043Z,60.20
2022-12-29T06:51:36.131Z,60.10
2022-12-29T06:54:04.221Z,60.10
2022-12-29T06:56:32.362Z,60.00
2022-12-29T06:59:02.097Z,59.90
2022-12-29T07:01:30.317Z,59.90
2022-12-29T07:03:58.609Z,59.80
2022-12-29T07:06:28.102Z,59.70
2022-12-29T07:08:58.255Z,59.60
2022-12-29T07:11:26.514Z,59.60
2022-12-29T07:13:54.647Z,59.50
2022-12-29T07:16:22.856Z,59.40
2022-12-29T07:18:51.051Z,59.40
2022-12-29T07:21:19.364Z,59.40
2022-12-29T07:23:48.853Z,59.40
2022-12-29T07:26:18.699Z,59.30
2022-12-29T07:28:46.905Z,59.30
2022-12-29T07:31:17.571Z,59.30
2022-12-29T07:33:45.811Z,59.30
2022-12-29T07:36:14.883Z,59.40
2022-12-29T07:38:43.595Z,59.40
2022-12-29T07:41:13.233Z,59.40
2022-12-29T07:43:41.366Z,59.40
2022-12-29T07:46:54.463Z,59.00
2022-12-29T07:49:23.069Z,59.00
2022-12-29T07:51:51.189Z,59.20
2022-12-29T07:54:20.162Z,59.50
2022-12-29T07:56:49.687Z,59.50
2022-12-29T07:59:17.874Z,59.50
2022-12-29T08:01:46.178Z,59.40
2022-12-29T08:04:14.391Z,59.40
2022-12-29T08:06:42.635Z,59.40
2022-12-29T08:09:16.464Z,59.40
2022-12-29T08:11:49.227Z,59.40
2022-12-29T08:14:17.419Z,59.40
2022-12-29T08:16:45.552Z,59.30
2022-12-29T08:19:14.559Z,59.20
2022-12-29T08:21:42.724Z,59.20
2022-12-29T08:24:11.247Z,59.10
2022-12-29T08:26:39.342Z,59.10
2022-12-29T08:29:08.931Z,59.10
2022-12-29T08:31:37.183Z,59.10
2022-12-29T08:34:05.672Z,59.00
2022-12-29T08:36:33.824Z,59.00
2022-12-29T08:39:01.988Z,59.00
2022-12-29T08:41:30.110Z,59.00
2022-12-29T08:43:58.555Z,59.00
2022-12-29T08:46:28.077Z,59.00
2022-12-29T08:48:56.578Z,59.00
2022-12-29T08:51:25.347Z,59.00
2022-12-29T08:53:54.054Z,59.00
2022-12-29T08:56:24.684Z,59.00
2022-12-29T08:58:56.323Z,59.00
2022-12-29T09:01:27.449Z,59.10
2022-12-29T09:06:44.672Z,59.10
2022-12-29T09:09:13.183Z,59.10
2022-12-29T09:11:41.431Z,59.10
2022-12-29T09:14:09.751Z,59.10
2022-12-29T09:16:39.774Z,59.10
2022-12-29T09:19:08.004Z,59.00
2022-12-29T09:21:36.124Z,59.10
2022-12-29T09:24:04.556Z,59.00
2022-12-29T09:26:32.724Z,59.00
2022-12-29T09:29:00.798Z,59.00
2022-12-29T09:31:28.984Z,59.00
2022-12-29T09:33:58.582Z,58.90
2022-12-29T09:36:26.721Z,58.90
2022-12-29T09:38:55.525Z,58.80
2022-12-29T09:41:28.503Z,58.80
2022-12-29T09:44:06.246Z,58.80
2022-12-29T09:46:37.333Z,58.70
2022-12-29T09:49:23.332Z,58.70
2022-12-29T09:51:55.254Z,58.70
2022-12-29T09:54:36.834Z,58.60
2022-12-29T09:57:05.199Z,58.60
2022-12-29T09:59:42.039Z,58.60
2022-12-29T10:02:25.814Z,58.60
2022-12-29T10:04:55.417Z,58.60
2022-12-29T10:07:33.131Z,58.50
2022-12-29T10:10:17.265Z,58.50
2022-12-29T10:12:57.987Z,58.40
2022-12-29T10:15:50.285Z,58.40
2022-12-29T10:18:34.781Z,58.40
2022-12-29T10:21:10.905Z,58.40
2022-12-29T10:23:44.563Z,58.40
2022-12-29T10:26:17.116Z,58.40
2022-12-29T10:28:48.298Z,58.30
2022-12-29T10:31:21.913Z,58.30
2022-12-29T10:33:54.400Z,58.30
2022-12-29T10:36:31.286Z,58.30
2022-12-29T10:39:08.137Z,58.20
2022-12-29T10:41:41.987Z,58.10
2022-12-29T10:44:15.649Z,58.10
2022-12-29T10:46:45.335Z,58.10
2022-12-29T10:49:21.815Z,57.80
2022-12-29T10:51:53.415Z,57.80
2022-12-29T10:54:28.857Z,57.80
2022-12-29T10:57:02.557Z,57.50
2022-12-29T10:59:33.068Z,57.30
2022-12-29T11:02:17.854Z,57.30
2022-12-29T11:04:54.437Z,57.30
2022-12-29T11:07:27.331Z,57.50
2022-12-29T11:09:56.171Z,57.40
2022-12-29T11:12:26.987Z,57.50
2022-12-29T11:15:15.796Z,57.50
2022-12-29T11:17:48.971Z,57.60
2022-12-29T11:20:36.032Z,57.70
2022-12-29T11:23:24.997Z,57.70
2022-12-29T11:26:19.197Z,57.80
2022-12-29T11:28:49.541Z,57.80
2022-12-29T11:31:19.741Z,57.80
2022-12-29T11:33:47.978Z,57.80
2022-12-29T11:36:19.309Z,57.90
2022-12-29T11:38:52.203Z,58.00
2022-12-29T11:41:26.008Z,58.00
2022-12-29T11:43:57.774Z,58.10
2022-12-29T11:46:28.928Z,58.00
2022-12-29T11:49:00.672Z,58.00
2022-12-29T11:51:31.764Z,57.80
2022-12-29T11:54:04.286Z,58.00
2022-12-29T11:56:40.912Z,57.90
2022-12-29T11:59:38.880Z,57.80
2022-12-29T12:02:40.483Z,57.60
2022-12-29T12:05:27.942Z,57.70
2022-12-29T12:08:01.699Z,57.60
2022-12-29T12:10:39.583Z,57.70
2022-12-29T12:13:17.912Z,57.60
2022-12-29T12:15:56.402Z,57.60
2022-12-29T12:18:36.069Z,57.70
2022-12-29T12:21:10.748Z,57.70
2022-12-29T12:23:50.598Z,57.70
2022-12-29T12:26:23.637Z,57.80
2022-12-29T12:28:56.401Z,57.80
2022-12-29T12:31:38.174Z,57.80
2022-12-29T12:34:12.848Z,57.70
2022-12-29T12:37:11.619Z,57.90
2022-12-29T12:39:48.132Z,57.90
2022-12-29T12:42:29.336Z,58.00
2022-12-29T12:45:16.126Z,58.00
2022-12-29T12:47:56.629Z,57.90
2022-12-29T12:50:38.254Z,58.10
2022-12-29T12:53:32.768Z,58.00
2022-12-29T12:56:32.754Z,58.20
2022-12-29T12:59:12.497Z,58.20
2022-12-29T13:01:53.068Z,58.10
2022-12-29T13:04:39.475Z,58.00
2022-12-29T13:07:21.063Z,58.10
2022-12-29T13:10:00.455Z,58.00
2022-12-29T13:12:38.981Z,58.00
2022-12-29T13:15:26.094Z,58.10
2022-12-29T13:18:05.184Z,58.00
2022-12-29T13:20:41.351Z,58.10
2022-12-29T13:23:17.403Z,58.10
2022-12-29T13:25:52.409Z,58.10
2022-12-29T13:28:29.842Z,58.00
2022-12-29T13:31:06.862Z,58.00
2022-12-29T13:33:43.134Z,58.00
2022-12-29T13:36:23.744Z,58.10
2022-12-29T13:38:57.609Z,58.20
2022-12-29T13:41:32.943Z,58.20
2022-12-29T13:44:03.927Z,58.20
2022-12-29T13:46:40.939Z,58.30
2022-12-29T13:49:15.046Z,58.30
2022-12-29T13:51:48.761Z,58.30
2022-12-29T13:54:29.507Z,58.30
2022-12-29T13:57:07.884Z,58.30
2022-12-29T13:59:45.982Z,58.30
2022-12-29T14:02:23.445Z,58.40
2022-12-29T14:04:59.971Z,58.40
2022-12-29T14:07:28.553Z,58.40
2022-12-29T14:09:58.188Z,58.40
2022-12-29T14:12:39.367Z,58.40
2022-12-29T14:15:24.072Z,58.30
2022-12-29T14:18:06.784Z,58.30
2022-12-29T14:20:35.937Z,58.30
2022-12-29T14:23:19.016Z,58.20
2022-12-29T14:25:59.816Z,58.30
2022-12-29T14:28:29.880Z,58.20
2022-12-29T14:30:59.491Z,58.20
2022-12-29T14:33:31.495Z,58.10
2022-12-29T14:36:23.747Z,58.10
2022-12-29T14:38:51.967Z,58.00
2022-12-29T14:41:31.109Z,57.90
2022-12-29T14:44:19.532Z,57.90
2022-12-29T14:46:51.224Z,57.80
2022-12-29T14:49:24.159Z,57.90
2022-12-29T14:51:54.733Z,57.90
2022-12-29T14:54:52.140Z,57.90
2022-12-29T14:57:26.879Z,57.90
2022-12-29T14:59:58.085Z,58.00
2022-12-29T15:02:30.828Z,58.00
2022-12-29T15:05:04.355Z,58.00
2022-12-29T15:07:34.354Z,58.10
2022-12-29T15:10:09.852Z,58.10
2022-12-29T15:12:41.776Z,58.10
2022-12-29T15:15:22.303Z,58.10
2022-12-29T15:17:50.440Z,58.20
2022-12-29T15:20:26.149Z,58.20
2022-12-29T15:22:58.219Z,58.20
2022-12-29T15:25:27.435Z,58.20
2022-12-29T15:27:59.103Z,58.30
2022-12-29T15:30:27.237Z,58.30
2022-12-29T15:32:55.594Z,58.30
2022-12-29T15:35:29.238Z,58.30
2022-12-29T15:38:00.997Z,58.30
2022-12-29T15:40:31.633Z,58.40
2022-12-29T15:43:23.872Z,58.30
2022-12-29T15:45:53.941Z,58.40
2022-12-29T15:48:25.091Z,58.30
2022-12-29T15:50:54.599Z,58.30
2022-12-29T15:53:29.210Z,58.30
2022-12-29T15:56:03.208Z,58.30
2022-12-29T15:58:33.333Z,58.30
2022-12-29T16:01:03.576Z,58.30
2022-12-29T16:03:35.323Z,58.30
2022-12-29T16:06:26.713Z,58.30
2022-12-29T16:08:59.245Z,58.30
2022-12-29T16:11:31.504Z,58.30
2022-12-29T16:13:59.960Z,58.30
2022-12-29T16:16:30.808Z,58.20
2022-12-29T16:18:59.640Z,58.10
2022-12-29T16:21:33.702Z,58.20
2022-12-29T16:24:04.452Z,58.30
2022-12-29T16:26:32.764Z,58.20
2022-12-29T16:29:03.545Z,58.20
2022-12-29T16:31:37.050Z,58.10
2022-12-29T16:34:23.516Z,58.20
2022-12-29T16:36:58.259Z,58.30
2022-12-29T16:39:32.951Z,58.20
2022-12-29T16:42:01.457Z,58.20
2022-12-29T16:44:31.172Z,58.30
2022-12-29T16:47:20.602Z,58.30
2022-12-29T16:49:53.506Z,58.40
2022-12-29T16:52:25.993Z,58.40
2022-12-29T16:54:56.983Z,58.40
2022-12-29T16:57:29.829Z,58.40
2022-12-29T17:00:00.818Z,58.40
2022-12-29T17:02:31.759Z,58.40
2022-12-29T17:05:00.036Z,58.40
2022-12-29T17:07:30.278Z,58.40
2022-12-29T17:09:58.392Z,58.40
2022-12-29T17:12:30.796Z,58.40
2022-12-29T17:15:01.497Z,58.50
2022-12-29T17:17:34.580Z,58.50
2022-12-29T17:20:05.456Z,58.50
2022-12-29T17:22:35.315Z,58.50
2022-12-29T17:25:04.011Z,58.60
2022-12-29T17:27:37.084Z,58.60
2022-12-29T17:30:11.190Z,58.50
2022-12-29T17:32:40.166Z,58.50
2022-12-29T17:35:15.559Z,58.50
2022-12-29T17:37:46.663Z,58.50
2022-12-29T17:40:17.886Z,58.50
2022-12-29T17:42:47.442Z,58.50
2022-12-29T17:45:17.877Z,58.50
2022-12-29T17:47:46.032Z,58.40
2022-12-29T17:50:15.785Z,58.40
2022-12-29T17:52:48.688Z,58.40
2022-12-29T17:55:19.032Z,58.30
2022-12-29T17:57:47.486Z,58.30
2022-12-29T18:00:20.744Z,58.30
2022-12-29T18:02:50.220Z,58.30
2022-12-29T18:05:21.294Z,58.30
2022-12-29T18:07:52.596Z,58.30
2022-12-29T18:10:21.918Z,58.30
2022-12-29T18:12:52.100Z,58.30
2022-12-29T18:15:23.603Z,58.30
2022-12-29T18:17:56.686Z,58.40
2022-12-29T18:20:25.299Z,58.40
2022-12-29T18:22:55.408Z,58.40
2022-12-29T18:25:28.569Z,58.40
2022-12-29T18:27:56.851Z,58.40
2022-12-29T18:30:24.999Z,58.40
2022-12-29T18:32:53.305Z,58.30
2022-12-29T18:35:26.995Z,58.30
2022-12-29T18:37:56.556Z,58.30
2022-12-29T18:40:24.669Z,58.30
2022-12-29T18:42:53.373Z,58.30
2022-12-29T18:45:24.490Z,58.30
2022-12-29T18:47:52.858Z,58.30
2022-12-29T18:50:20.991Z,58.20
2022-12-29T18:52:49.171Z,58.20
2022-12-29T18:55:21.491Z,58.20
2022-12-29T18:57:49.722Z,58.30
2022-12-29T19:00:19.885Z,58.30
2022-12-29T19:02:48.942Z,58.40
2022-12-29T19:05:23.987Z,58.50
2022-12-29T19:07:52.722Z,58.60
2022-12-29T19:10:24.018Z,58.60
2022-12-29T19:12:53.076Z,58.60
2022-12-29T19:15:26.565Z,58.60
2022-12-29T19:18:41.226Z,58.60
2022-12-29T19:20:45.186Z,58.70
2022-12-29T19:23:15.136Z,58.70
2022-12-29T19:25:45.117Z,58.70
2022-12-29T19:28:19.434Z,58.80
2022-12-29T19:30:52.155Z,58.70
2022-12-29T19:33:21.299Z,58.90
2022-12-29T19:35:49.800Z,59.00
2022-12-29T19:38:18.421Z,59.10
2022-12-29T19:40:50.334Z,59.10
2022-12-29T19:43:19.811Z,59.10
2022-12-29T19:45:47.974Z,59.10
2022-12-29T19:48:17.818Z,59.10
2022-12-29T19:50:46.340Z,59.10
2022-12-29T19:53:15.433Z,59.10
2022-12-29T19:55:44.377Z,59.10
2022-12-29T19:58:14.721Z,59.10
2022-12-29T20:00:44.152Z,59.10
2022-12-29T20:03:12.830Z,59.10
2022-12-29T20:05:41.431Z,59.10
2022-12-29T20:08:09.744Z,59.10
2022-12-29T20:10:37.895Z,59.10
2022-12-29T20:13:06.109Z,59.10
2022-12-29T20:15:35.613Z,59.10
2022-12-29T20:18:13.586Z,59.10
2022-12-29T20:20:42.797Z,59.10
2022-12-29T20:23:11.140Z,59.10
2022-12-29T20:25:47.510Z,59.10
2022-12-29T20:28:17.399Z,59.10
2022-12-29T20:30:54.361Z,59.10
2022-12-29T20:33:22.657Z,59.10
2022-12-29T20:35:51.071Z,59.10
2022-12-29T20:38:19.337Z,59.10
2022-12-29T20:40:47.744Z,59.10
2022-12-29T20:43:17.368Z,59.10
2022-12-29T20:45:46.936Z,59.10
2022-12-29T20:48:15.140Z,59.00
2022-12-29T20:50:43.321Z,59.10
2022-12-29T20:53:12.372Z,58.90
2022-12-29T20:55:41.374Z,58.90
2022-12-29T20:58:25.993Z,59.00
2022-12-29T21:00:56.630Z,59.00
2022-12-29T21:03:25.790Z,58.90
2022-12-29T21:05:55.356Z,59.00
2022-12-29T21:08:23.993Z,59.10
2022-12-29T21:10:52.380Z,59.10
2022-12-29T21:13:21.044Z,59.10
2022-12-29T21:15:49.261Z,59.10
2022-12-29T21:18:18.743Z,59.00
2022-12-29T21:20:55.310Z,59.00
2022-12-29T21:23:23.488Z,58.90
2022-12-29T21:25:52.964Z,59.00
2022-12-29T21:28:21.903Z,59.00
2022-12-29T21:30:50.718Z,59.10
2022-12-29T21:33:21.603Z,59.20
2022-12-29T21:35:49.802Z,59.40
2022-12-29T21:38:17.921Z,59.50
2022-12-29T21:40:46.101Z,59.60
2022-12-29T21:43:15.965Z,59.70
2022-12-29T21:45:43.161Z,59.70
2022-12-29T21:48:24.427Z,59.80
2022-12-29T21:51:12.682Z,59.90
2022-12-29T21:53:43.221Z,60.00
2022-12-29T21:56:13.440Z,60.10
2022-12-29T21:59:01.428Z,60.10
2022-12-29T22:01:49.403Z,60.10
2022-12-29T22:04:37.556Z,60.10
2022-12-29T22:07:26.806Z,60.20
2022-12-29T22:10:12.612Z,60.20
2022-12-29T22:12:59.977Z,60.20
2022-12-29T22:15:28.903Z,60.20
2022-12-29T22:17:57.370Z,60.20
2022-12-29T22:20:27.260Z,60.20
2022-12-29T22:22:56.949Z,60.20
2022-12-29T22:25:25.240Z,60.10
2022-12-29T22:27:58.953Z,60.10
2022-12-29T22:30:28.532Z,60.10
2022-12-29T22:32:58.847Z,60.00
2022-12-29T22:35:27.210Z,60.00
2022-12-29T22:37:56.687Z,59.90
2022-12-29T22:40:24.883Z,59.90
2022-12-29T22:42:53.091Z,59.90
2022-12-29T22:45:21.913Z,59.80
2022-12-29T22:47:50.073Z,59.90
2022-12-29T22:50:18.374Z,59.90
2022-12-29T22:52:46.509Z,59.90
2022-12-29T22:55:16.142Z,60.00
2022-12-29T22:57:44.286Z,60.00
2022-12-29T23:00:12.837Z,60.00
2022-12-29T23:02:41.308Z,60.00
2022-12-29T23:05:10.449Z,60.00
2022-12-29T23:07:38.814Z,60.00
2022-12-29T23:10:07.656Z,60.00
2022-12-29T23:12:37.122Z,60.00
2022-12-29T23:15:06.037Z,60.00
2022-12-29T23:17:34.292Z,60.00
2022-12-29T23:20:02.400Z,60.00
2022-12-29T23:22:30.523Z,60.00
2022-12-29T23:24:58.665Z,60.00
2022-12-29T23:27:26.818Z,60.10
2022-12-29T23:29:56.285Z,60.10
2022-12-29T23:32:24.401Z,60.10
2022-12-29T23:34:52.487Z,60.10
2022-12-29T23:37:20.641Z,60.10
2022-12-29T23:39:48.767Z,60.10
2022-12-29T23:42:16.922Z,60.00
2022-12-29T23:44:45.035Z,60.00
2022-12-29T23:47:14.674Z,60.00
2022-12-29T23:49:42.833Z,60.00
2022-12-29T23:52:11.642Z,60.00
2022-12-29T23:54:39.792Z,60.00
2022-12-29T23:57:07.996Z,60.00
2022-12-29T23:59:36.155Z,60.00
